Time;durP1;ratioP1;P1;durP2;ratioP2;P2;SDS_P1;SDS_P2;PMS_P1;PMS_P2;Temp;Humidity;BMP_temperature;BMP_pressure;BME280_temperature;BME280_humidity;BME280_pressure;Samples;Min_cycle;Max_cycle;Signal;HPM_P1;HPM_P2
2022/02/03 00:00:24;;;;;;;23.23;8.30;;;9.00;1.00;9.20;100846.00;;;;5067875;28;20848;-84
2022/02/03 00:03:05;;;;;;;22.23;7.53;;;8.80;1.00;9.20;100831.00;;;;5074208;28;21115;-82
2022/02/03 00:05:43;;;;;;;24.10;9.07;;;8.80;1.00;9.20;100846.00;;;;5072788;28;20471;-84
2022/02/03 00:08:22;;;;;;;20.77;8.07;;;8.80;1.00;9.30;100848.00;;;;5073622;28;20468;-82
2022/02/03 00:11:18;;;;;;;17.47;9.10;;;8.90;1.00;9.30;100835.00;;;;5073799;28;20479;-83
2022/02/03 00:17:02;;;;;;;18.13;8.43;;;8.90;1.00;9.30;100834.00;;;;5019964;28;20877;-83
2022/02/03 00:22:36;;;;;;;20.07;12.87;;;8.90;1.00;9.40;100831.00;;;;5014220;28;20465;-82
2022/02/03 00:25:11;;;;;;;24.97;13.07;;;8.90;1.00;9.30;100813.00;;;;5029264;28;20461;-83
2022/02/03 00:27:56;;;;;;;25.20;12.40;;;8.80;1.00;9.30;100834.00;;;;5048222;28;20488;-84
2022/02/03 00:30:34;;;;;;;29.70;13.93;;;8.80;1.00;9.30;100808.00;;;;5029458;28;20559;-83
2022/02/03 00:35:59;;;;;;;20.83;9.60;;;8.60;1.00;9.20;100801.00;;;;5031707;28;20503;-83
2022/02/03 00:48:14;;;;;;;22.03;10.50;;;8.60;1.00;9.20;100799.00;;;;5034635;28;20462;-86
2022/02/03 00:50:04;;;;;;;19.93;9.60;;;8.30;1.00;9.00;100811.00;;;;5034089;28;20496;-88
2022/02/03 00:52:35;;;;;;;30.73;12.13;;;8.20;1.00;8.90;100800.00;;;;5037687;28;20436;-85
2022/02/03 00:55:05;;;;;;;32.10;13.87;;;8.20;1.00;8.80;100814.00;;;;5037298;28;20443;-87
2022/02/03 00:57:44;;;;;;;33.27;13.53;;;8.10;1.00;8.80;100802.00;;;;5037620;28;20857;-85
2022/02/03 01:00:17;;;;;;;26.17;13.03;;;8.00;1.00;8.80;100815.00;;;;5052725;28;20475;-83
2022/02/03 01:02:49;;;;;;;25.87;12.37;;;8.00;1.00;8.80;100811.00;;;;5041093;28;21001;-82
2022/02/03 01:05:19;;;;;;;20.93;11.43;;;8.00;1.00;8.90;100824.00;;;;5033103;28;20443;-82
2022/02/03 01:07:50;;;;;;;28.13;11.00;;;8.10;1.00;8.90;100817.00;;;;5038688;28;20445;-83
2022/02/03 01:10:24;;;;;;;24.43;10.93;;;8.20;1.00;8.90;100824.00;;;;5043279;28;20443;-85
2022/02/03 01:13:02;;;;;;;23.40;10.20;;;8.20;1.00;8.80;100813.00;;;;5047584;28;20453;-84
2022/02/03 01:15:41;;;;;;;21.20;10.50;;;8.10;1.00;8.80;100815.00;;;;5046844;28;20440;-86
2022/02/03 01:18:41;;;;;;;23.80;11.40;;;8.00;1.00;8.70;100801.00;;;;5037608;28;20449;-83
2022/02/03 01:21:32;;;;;;;21.37;10.20;;;8.00;1.00;8.80;100798.00;;;;5028966;28;20503;-84
2022/02/03 01:43:44;;;;;;;20.13;11.87;;;7.90;1.00;8.70;100807.00;;;;5032412;28;20453;-83
2022/02/03 01:46:26;;;;;;;22.47;11.97;;;8.00;1.00;8.70;100795.00;;;;5053086;28;20463;-83
2022/02/03 01:49:12;;;;;;;18.77;11.10;;;7.90;1.00;8.70;100801.00;;;;5043739;28;20579;-84
2022/02/03 01:51:55;;;;;;;24.10;12.10;;;7.90;1.00;8.70;100779.00;;;;5041586;28;20572;-82
2022/02/03 01:54:29;;;;;;;19.63;10.97;;;8.10;1.00;8.80;100786.00;;;;5031605;28;20469;-84
2022/02/03 01:57:09;;;;;;;23.37;10.90;;;8.00;1.00;8.80;100778.00;;;;5034375;28;20453;-83
2022/02/03 01:59:38;;;;;;;24.53;12.30;;;8.10;1.00;8.70;100767.00;;;;5044552;28;20467;-88
2022/02/03 02:02:08;;;;;;;25.53;11.73;;;8.00;1.00;8.70;100780.00;;;;5048375;28;20460;-89
2022/02/03 02:05:13;;;;;;;22.40;12.67;;;7.90;1.00;8.70;100760.00;;;;5050339;28;20457;-88
2022/02/03 02:07:58;;;;;;;20.50;11.07;;;8.00;1.00;8.70;100762.00;;;;5007154;28;21010;-87
2022/02/03 02:11:02;;;;;;;23.60;11.53;;;8.00;1.00;8.70;100761.00;;;;5043512;28;20489;-83
2022/02/03 02:14:02;;;;;;;18.60;11.07;;;8.20;1.00;8.70;100750.00;;;;5024264;28;20467;-83
2022/02/03 02:17:08;;;;;;;21.20;12.87;;;7.90;1.00;8.70;100756.00;;;;5031508;28;20438;-84
2022/02/03 02:19:55;;;;;;;29.03;12.40;;;7.90;1.00;8.70;100755.00;;;;5041751;28;20969;-83
2022/02/03 02:39:49;;;;;;;26.37;12.47;;;7.90;1.00;8.60;100702.00;;;;5027852;28;20457;-85
2022/02/03 02:45:11;;;;;;;24.73;13.37;;;7.90;1.00;8.70;100715.00;;;;5022143;28;20465;-82
2022/02/03 02:47:54;;;;;;;26.90;15.53;;;8.10;1.00;8.70;100709.00;;;;5027912;28;20461;-85
2022/02/03 02:50:35;;;;;;;24.30;14.90;;;8.20;1.00;8.80;100691.00;;;;5039174;28;20468;-83
2022/02/03 02:53:16;;;;;;;29.23;15.70;;;8.30;1.00;8.90;100680.00;;;;5025910;28;20715;-83
2022/02/03 02:56:06;;;;;;;22.70;16.60;;;8.30;1.00;8.90;100698.00;;;;5035622;28;20453;-83
2022/02/03 02:59:01;;;;;;;26.17;17.10;;;8.40;1.00;8.90;100701.00;;;;5029082;28;20465;-84
2022/02/03 03:29:47;;;;;;;28.33;17.90;;;8.90;1.00;9.40;100681.00;;;;5031801;28;20469;-83
2022/02/03 03:32:36;;;;;;;28.40;17.90;;;9.00;1.00;9.40;100679.00;;;;5032524;28;20449;-84
2022/02/03 03:35:16;;;;;;;28.43;17.20;;;9.00;1.00;9.40;100668.00;;;;5030419;28;20556;-84
2022/02/03 03:37:47;;;;;;;24.67;17.07;;;9.00;1.00;9.40;100673.00;;;;5032245;28;20540;-84
2022/02/03 03:40:18;;;;;;;29.63;19.00;;;9.00;1.00;9.50;100681.00;;;;5031035;28;20487;-84
2022/02/03 03:43:04;;;;;;;22.97;17.03;;;9.10;1.00;9.50;100682.00;;;;5031253;28;20480;-84
2022/02/03 03:45:35;;;;;;;30.30;17.43;;;9.40;1.00;9.50;100671.00;;;;5028156;28;20453;-83
2022/02/03 03:48:09;;;;;;;28.77;14.90;;;9.10;1.00;9.50;100661.00;;;;5024408;28;20460;-82
2022/02/03 03:50:40;;;;;;;28.63;18.43;;;9.10;1.00;9.50;100663.00;;;;5030893;28;20484;-84
2022/02/03 03:53:18;;;;;;;26.77;17.90;;;9.10;1.00;9.50;100664.00;;;;5029915;28;20461;-84
2022/02/03 03:55:57;;;;;;;26.63;18.37;;;9.10;1.00;9.60;100663.00;;;;5041408;28;20483;-83
2022/02/03 04:31:38;;;;;;;33.27;21.87;;;9.10;1.00;9.60;100645.00;;;;5037197;28;20551;-85
2022/02/03 04:34:40;;;;;;;39.30;23.03;;;9.20;1.00;9.60;100644.00;;;;5031206;28;20448;-87
2022/02/03 04:37:44;;;;;;;34.00;22.33;;;9.20;1.00;9.60;100646.00;;;;5038761;28;20475;-85
2022/02/03 04:56:16;;;;;;;34.97;24.10;;;9.30;1.00;9.70;100640.00;;;;5024304;28;20439;-90
2022/02/03 04:59:25;;;;;;;38.33;23.07;;;9.30;1.00;9.70;100644.00;;;;5041764;28;20444;-90
2022/02/03 05:02:32;;;;;;;37.87;24.43;;;9.30;1.00;9.70;100642.00;;;;5037335;28;20467;-83
2022/02/03 05:05:26;;;;;;;38.07;23.83;;;9.30;1.00;9.70;100655.00;;;;5024618;28;20461;-83
2022/02/03 05:08:28;;;;;;;34.90;23.93;;;9.30;1.00;9.70;100644.00;;;;5024893;28;20457;-83
2022/02/03 05:11:32;;;;;;;34.90;23.13;;;9.30;1.00;9.70;100637.00;;;;5034511;28;20492;-82
2022/02/03 05:14:54;;;;;;;39.07;26.00;;;9.30;1.00;9.70;100632.00;;;;5051301;28;20467;-82
2022/02/03 05:18:15;;;;;;;39.57;23.90;;;9.40;1.00;9.70;100628.00;;;;5033858;28;20453;-82
2022/02/03 05:21:46;;;;;;;37.17;23.80;;;9.30;1.00;9.70;100622.00;;;;5028204;28;20476;-82
2022/02/03 05:51:29;;;;;;;28.93;21.83;;;9.40;1.00;9.80;100554.00;;;;5150849;27;21168;-81
2022/02/03 06:05:16;;;;;;;32.40;21.50;;;9.20;1.00;9.60;100541.00;;;;5047612;28;20928;-81
2022/02/03 06:07:59;;;;;;;26.17;19.83;;;9.10;1.00;9.50;100549.00;;;;5145098;28;20432;-82
2022/02/03 06:13:17;;;;;;;25.57;19.37;;;9.10;1.00;9.50;100541.00;;;;5122142;28;20444;-87
2022/02/03 06:15:52;;;;;;;25.23;20.27;;;9.00;1.00;9.50;100554.00;;;;5116760;28;20479;-89
2022/02/03 06:21:26;;;;;;;26.10;19.87;;;9.00;1.00;9.40;100540.00;;;;5126112;28;20979;-83
2022/02/03 06:24:09;;;;;;;21.67;16.20;;;8.90;1.00;9.40;100541.00;;;;5125460;28;20941;-85
2022/02/03 06:29:27;;;;;;;21.03;15.43;;;8.80;1.00;9.30;100544.00;;;;5105856;28;20464;-84
2022/02/03 06:31:56;;;;;;;22.40;17.90;;;8.80;1.00;9.40;100554.00;;;;5106783;28;20977;-83
2022/02/03 06:34:25;;;;;;;19.90;16.50;;;8.90;1.00;9.40;100542.00;;;;5117990;28;20445;-83
2022/02/03 06:36:55;;;;;;;23.07;15.80;;;9.00;1.00;9.50;100554.00;;;;5117931;28;20445;-82
2022/02/03 06:39:27;;;;;;;21.13;14.90;;;9.00;1.00;9.50;100553.00;;;;5116344;28;21011;-84
2022/02/03 06:42:01;;;;;;;21.40;15.73;;;9.10;1.00;9.60;100551.00;;;;5102384;28;20458;-83
2022/02/03 06:44:34;;;;;;;20.17;14.20;;;9.10;1.00;9.60;100569.00;;;;5118500;28;20540;-82
2022/02/03 06:47:10;;;;;;;20.07;17.60;;;9.20;1.00;9.70;100546.00;;;;5115380;28;20584;-86
2022/02/03 06:49:47;;;;;;;20.73;16.10;;;9.20;1.00;9.70;100547.00;;;;5108900;28;20488;-84
2022/02/03 06:52:21;;;;;;;18.53;14.17;;;9.30;1.00;9.80;100550.00;;;;5111713;28;20459;-85
2022/02/03 06:55:03;;;;;;;21.07;15.80;;;9.30;1.00;9.80;100550.00;;;;5113055;28;21179;-87
2022/02/03 06:57:36;;;;;;;21.57;14.97;;;9.40;1.00;9.80;100562.00;;;;5112463;27;20465;-86
2022/02/03 07:00:15;;;;;;;19.13;14.60;;;9.40;1.00;9.80;100558.00;;;;5112977;27;20473;-83
2022/02/03 07:02:46;;;;;;;20.73;14.50;;;9.40;1.00;9.80;100556.00;;;;5078044;28;20956;-86
2022/02/03 07:05:14;;;;;;;18.07;14.27;;;9.40;1.00;9.80;100559.00;;;;5094389;28;21139;-85
2022/02/03 07:07:43;;;;;;;18.80;14.47;;;9.40;1.00;9.80;100574.00;;;;5101227;28;20816;-83
2022/02/03 07:10:13;;;;;;;16.60;13.07;;;9.40;1.00;9.90;100568.00;;;;5102405;28;20495;-81
2022/02/03 07:12:41;;;;;;;18.90;14.27;;;9.50;1.00;9.90;100559.00;;;;5103264;28;20477;-83
2022/02/03 07:15:11;;;;;;;18.87;14.77;;;9.50;1.00;10.00;100577.00;;;;5105527;28;20442;-83
2022/02/03 07:17:40;;;;;;;19.73;14.10;;;9.60;1.00;10.00;100557.00;;;;5100895;28;20972;-83
2022/02/03 07:20:14;;;;;;;17.60;14.53;;;9.60;1.00;10.00;100553.00;;;;5098536;28;20480;-85
2022/02/03 07:22:43;;;;;;;19.87;14.87;;;9.70;1.00;10.10;100565.00;;;;5069188;28;20477;-83
2022/02/03 07:25:14;;;;;;;17.43;13.93;;;9.70;1.00;10.10;100570.00;;;;5100871;28;20991;-85
2022/02/03 07:27:44;;;;;;;18.47;14.33;;;9.70;1.00;10.10;100580.00;;;;5080588;28;21287;-83
2022/02/03 07:30:13;;;;;;;22.73;15.50;;;9.80;1.00;10.20;100559.00;;;;5100126;28;21044;-83
2022/02/03 07:32:42;;;;;;;17.93;14.30;;;9.80;1.00;10.10;100561.00;;;;5102466;28;20446;-85
2022/02/03 07:35:11;;;;;;;20.17;13.63;;;9.80;1.00;10.20;100560.00;;;;5103094;28;20439;-82
2022/02/03 07:37:43;;;;;;;15.87;12.50;;;9.80;1.00;10.10;100559.00;;;;5101234;28;20453;-87
2022/02/03 07:40:13;;;;;;;18.27;14.37;;;9.80;1.00;10.20;100573.00;;;;5101577;28;20476;-89
2022/02/03 07:42:45;;;;;;;20.63;15.40;;;9.80;1.00;10.20;100570.00;;;;5101280;28;20457;-84
2022/02/03 07:45:14;;;;;;;19.17;14.67;;;9.80;1.00;10.20;100549.00;;;;5102785;28;20449;-86
2022/02/03 07:47:46;;;;;;;18.97;14.03;;;9.80;1.00;10.20;100527.00;;;;5100586;28;20465;-86
2022/02/03 07:50:16;;;;;;;18.90;14.23;;;10.00;1.00;10.20;100549.00;;;;5100100;28;20477;-85
2022/02/03 07:52:45;;;;;;;19.67;13.73;;;9.80;1.00;10.30;100540.00;;;;5104435;28;20819;-84
2022/02/03 07:55:16;;;;;;;18.90;14.17;;;9.90;1.00;10.40;100557.00;;;;5105605;28;20433;-83
2022/02/03 07:57:45;;;;;;;20.00;13.93;;;10.00;1.00;10.50;100558.00;;;;5088736;28;20465;-85
2022/02/03 08:00:15;;;;;;;19.63;13.80;;;10.10;1.00;10.50;100539.00;;;;5102746;28;20473;-86
2022/02/03 08:03:10;;;;;;;16.50;13.67;;;10.10;1.00;10.60;100536.00;;;;5104717;28;20490;-86
2022/02/03 08:05:41;;;;;;;16.70;13.30;;;10.10;1.00;10.50;100526.00;;;;5107068;28;20488;-85
2022/02/03 08:08:18;;;;;;;17.93;12.93;;;10.10;1.00;10.50;100518.00;;;;5107182;28;20442;-87
2022/02/03 08:10:50;;;;;;;14.90;12.23;;;10.10;1.00;10.50;100506.00;;;;5105381;28;20572;-85
2022/02/03 08:13:24;;;;;;;18.80;14.20;;;10.10;1.00;10.50;100519.00;;;;5107173;28;20453;-83
2022/02/03 08:16:00;;;;;;;17.03;11.90;;;10.20;1.00;10.60;100534.00;;;;5102368;28;20507;-83
2022/02/03 08:18:37;;;;;;;15.20;13.57;;;10.20;1.00;10.60;100521.00;;;;5085399;28;20453;-84
2022/02/03 08:21:08;;;;;;;16.07;11.50;;;10.20;1.00;10.60;100513.00;;;;5092741;28;20477;-84
2022/02/03 08:29:17;;;;;;;16.20;10.57;;;10.20;1.00;10.60;100504.00;;;;5081182;28;20460;-84
2022/02/03 08:31:53;;;;;;;16.50;12.10;;;10.20;1.00;10.60;100502.00;;;;5103803;28;20469;-84
2022/02/03 08:34:35;;;;;;;14.07;11.53;;;10.20;1.00;10.60;100506.00;;;;5104579;28;20468;-85
2022/02/03 08:37:06;;;;;;;15.53;11.47;;;10.20;1.00;10.60;100482.00;;;;5132291;28;20429;-86
2022/02/03 08:39:43;;;;;;;18.37;12.23;;;10.20;1.00;10.60;100475.00;;;;5097536;28;20438;-84
2022/02/03 08:42:13;;;;;;;15.37;11.97;;;10.20;1.00;10.60;100478.00;;;;5117910;28;20440;-86
2022/02/03 08:44:41;;;;;;;14.53;11.40;;;10.20;1.00;10.50;100479.00;;;;5102279;28;20442;-87
2022/02/03 08:47:10;;;;;;;18.43;12.40;;;10.10;1.00;10.50;100486.00;;;;5119148;28;20418;-88
2022/02/03 08:49:43;;;;;;;17.43;12.83;;;10.10;1.00;10.50;100492.00;;;;5125126;28;20456;-88
2022/02/03 08:52:17;;;;;;;18.07;13.10;;;10.10;1.00;10.50;100475.00;;;;5129575;28;20464;-88
2022/02/03 08:54:58;;;;;;;16.70;12.60;;;10.10;1.00;10.50;100505.00;;;;5122254;28;20536;-86
2022/02/03 08:57:39;;;;;;;15.47;10.83;;;10.10;1.00;10.50;100486.00;;;;5117734;28;20962;-86
2022/02/03 09:00:36;;;;;;;14.80;11.40;;;10.20;1.00;10.60;100482.00;;;;5116294;28;20470;-87
2022/02/03 09:59:39;;;;;;;6.33;5.60;;;10.60;1.00;11.00;100414.00;;;;5089461;28;20460;-85
2022/02/03 10:02:11;;;;;;;7.43;6.00;;;10.60;1.00;11.20;100413.00;;;;5091995;28;20492;-85
2022/02/03 10:04:47;;;;;;;6.27;5.00;;;10.80;1.00;11.20;100409.00;;;;5117439;28;20471;-85
2022/02/03 10:07:24;;;;;;;5.87;4.90;;;10.80;1.00;11.40;100384.00;;;;5120161;28;20430;-82
2022/02/03 10:09:54;;;;;;;6.90;5.10;;;11.00;1.00;11.60;100498.00;;;;5119415;28;20473;-83
2022/02/03 10:12:32;;;;;;;6.00;4.70;;;11.20;1.00;11.80;100438.00;;;;5116137;28;20484;-84
2022/02/03 10:15:03;;;;;;;6.53;4.77;;;11.30;1.00;11.80;100370.00;;;;5106092;28;20469;-85
2022/02/03 10:17:42;;;;;;;6.30;4.90;;;11.50;1.00;11.80;100460.00;;;;5101919;28;20457;-86
2022/02/03 10:20:16;;;;;;;5.10;4.10;;;11.40;1.00;11.70;100453.00;;;;5102476;28;20484;-85
2022/02/03 10:22:47;;;;;;;8.17;4.63;;;11.40;1.00;11.70;100468.00;;;;5101012;28;20453;-85
2022/02/03 10:25:23;;;;;;;6.53;4.90;;;11.30;1.00;11.60;100476.00;;;;5086812;28;20476;-85
2022/02/03 10:28:00;;;;;;;6.70;4.60;;;11.20;1.00;11.50;100481.00;;;;5104866;28;20455;-85
2022/02/03 10:30:39;;;;;;;6.23;4.47;;;11.10;1.00;11.40;100470.00;;;;5098141;28;20639;-83
2022/02/03 10:33:08;;;;;;;5.63;4.77;;;11.20;1.00;11.20;100450.00;;;;5118389;28;20453;-83
2022/02/03 10:35:46;;;;;;;5.03;4.53;;;10.90;1.00;11.20;100428.00;;;;5112793;28;20530;-84
2022/02/03 10:44:29;;;;;;;7.43;5.60;;;10.90;1.00;11.30;100412.00;;;;5102585;28;20512;-85
2022/02/03 10:47:13;;;;;;;6.90;4.57;;;10.90;1.00;11.20;100414.00;;;;5082578;28;20453;-85
2022/02/03 10:50:21;;;;;;;6.53;4.53;;;10.80;1.00;11.20;100405.00;;;;5085942;28;20543;-87
2022/02/03 10:53:10;;;;;;;5.73;4.57;;;10.80;1.00;11.30;100398.00;;;;5114305;28;20489;-83
2022/02/03 10:56:03;;;;;;;5.63;4.47;;;10.90;1.00;11.30;100397.00;;;;5123630;28;20425;-83
2022/02/03 11:02:05;;;;;;;5.00;4.50;;;10.90;1.00;11.30;100379.00;;;;5051986;28;20457;-82
2022/02/03 11:07:27;;;;;;;7.30;3.93;;;10.90;1.00;11.20;100365.00;;;;5112345;28;20460;-84
2022/02/03 11:10:08;;;;;;;6.90;4.00;;;10.90;1.00;11.20;100348.00;;;;5100037;28;20461;-82
2022/02/03 11:12:51;;;;;;;5.13;4.07;;;10.80;1.00;11.30;100346.00;;;;5113219;28;20497;-82
2022/02/03 11:15:23;;;;;;;4.80;3.70;;;11.10;1.00;11.30;100351.00;;;;5109267;28;20487;-83
2022/02/03 11:17:54;;;;;;;4.40;3.73;;;11.00;1.00;11.30;100318.00;;;;5085440;28;20460;-84
2022/02/03 11:20:24;;;;;;;7.03;3.60;;;10.90;1.00;11.40;100334.00;;;;5101379;28;21138;-85
2022/02/03 11:23:07;;;;;;;4.63;3.70;;;11.00;1.00;11.50;100324.00;;;;5087671;28;20545;-83
2022/02/03 11:25:55;;;;;;;6.43;3.57;;;11.10;1.00;11.60;100317.00;;;;5084847;28;20462;-85
2022/02/03 11:28:50;;;;;;;3.37;2.30;;;11.20;1.00;11.60;100325.00;;;;5102940;28;20445;-87
2022/02/03 11:44:16;;;;;;;4.50;3.37;;;11.10;1.00;11.50;100338.00;;;;5108115;28;20815;-84
2022/02/03 11:47:06;;;;;;;4.50;3.83;;;11.20;1.00;11.50;100332.00;;;;5097483;28;21121;-85
2022/02/03 11:50:16;;;;;;;5.47;3.57;;;11.10;1.00;11.40;100317.00;;;;5091095;28;20462;-84
2022/02/03 12:11:45;;;;;;;4.53;3.27;;;10.80;1.00;11.30;100305.00;;;;5006104;28;20509;-82
2022/02/03 12:17:33;;;;;;;5.17;3.13;;;11.10;1.00;11.20;100314.00;;;;5120302;27;20529;-83
2022/02/03 12:20:15;;;;;;;5.13;3.70;;;10.80;1.00;11.20;100306.00;;;;5118480;28;21337;-84
2022/02/03 12:22:57;;;;;;;8.20;4.10;;;10.80;1.00;11.20;100298.00;;;;5081045;28;20457;-84
2022/02/03 12:25:45;;;;;;;5.60;3.73;;;10.80;1.00;11.20;100306.00;;;;5085404;28;20552;-84
2022/02/03 12:28:29;;;;;;;6.20;3.33;;;10.80;1.00;11.30;100322.00;;;;5103278;28;20960;-84
2022/02/03 12:39:40;;;;;;;3.03;2.17;;;11.10;1.00;11.50;100262.00;;;;5081348;28;20525;-83
2022/02/03 12:42:19;;;;;;;3.73;2.40;;;11.10;1.00;11.60;100262.00;;;;5093516;28;20476;-82
2022/02/03 12:44:50;;;;;;;3.43;2.30;;;11.20;1.00;11.60;100258.00;;;;5093179;28;20464;-87
2022/02/03 12:47:19;;;;;;;3.73;2.37;;;11.20;1.00;11.70;100258.00;;;;5093156;28;20449;-83
2022/02/03 12:49:53;;;;;;;3.03;2.13;;;11.30;1.00;11.70;100268.00;;;;5088177;28;20453;-84
2022/02/03 12:52:28;;;;;;;3.27;1.80;;;11.30;1.00;11.70;100255.00;;;;5105528;28;20456;-82
2022/02/03 12:54:57;;;;;;;2.70;2.03;;;11.30;1.00;11.60;100236.00;;;;5089870;28;20453;-82
2022/02/03 12:57:31;;;;;;;3.70;2.10;;;11.20;1.00;11.70;100251.00;;;;5087989;28;20473;-86
2022/02/03 13:00:16;;;;;;;2.43;1.80;;;11.20;1.00;11.70;100228.00;;;;5089602;28;20834;-85
2022/02/03 13:02:56;;;;;;;3.40;2.50;;;11.40;1.00;11.60;100209.00;;;;5088849;28;20501;-84
2022/02/03 13:05:29;;;;;;;2.97;1.47;;;11.50;1.00;11.70;100212.00;;;;5088809;28;20458;-85
2022/02/03 13:08:00;;;;;;;3.30;2.33;;;11.20;1.00;11.70;100221.00;;;;5111486;28;20447;-84
2022/02/03 13:10:33;;;;;;;3.33;2.30;;;11.40;1.00;11.70;100190.00;;;;5093297;28;21471;-84
2022/02/03 13:13:20;;;;;;;2.67;1.90;;;11.30;1.00;11.70;100194.00;;;;5081283;28;20485;-84
2022/02/03 13:15:51;;;;;;;2.30;1.70;;;11.30;1.00;11.60;100177.00;;;;5091513;28;20488;-82
2022/02/03 13:18:27;;;;;;;2.27;1.60;;;11.30;1.00;11.70;100181.00;;;;5103205;28;20826;-83
2022/02/03 13:21:04;;;;;;;4.53;1.50;;;11.30;1.00;11.60;100170.00;;;;5106082;28;20486;-86
2022/02/03 13:23:36;;;;;;;2.77;1.67;;;11.30;1.00;11.60;100157.00;;;;5088711;28;20520;-86
2022/02/03 13:26:10;;;;;;;4.20;1.53;;;11.20;1.00;11.50;100146.00;;;;5091707;28;20457;-87
2022/02/03 13:28:48;;;;;;;2.80;2.00;;;11.10;1.00;11.60;100150.00;;;;5093858;28;20449;-85
2022/02/03 13:31:32;;;;;;;2.43;1.60;;;11.20;1.00;11.60;100155.00;;;;5080717;28;20470;-81
2022/02/03 13:34:28;;;;;;;2.67;1.40;;;11.20;1.00;11.60;100157.00;;;;5080384;28;20446;-82
2022/02/03 13:37:12;;;;;;;2.70;1.37;;;11.20;1.00;11.60;100146.00;;;;5082404;28;20493;-83
2022/02/03 13:39:47;;;;;;;2.13;1.47;;;11.20;1.00;11.70;100141.00;;;;5066509;28;20450;-83
2022/02/03 13:42:16;;;;;;;2.50;1.70;;;11.30;1.00;11.80;100142.00;;;;5092313;28;20458;-82
2022/02/03 13:44:45;;;;;;;2.00;1.30;;;11.40;1.00;11.90;100150.00;;;;5091406;28;20450;-83
2022/02/03 13:47:25;;;;;;;1.93;1.27;;;11.50;1.00;11.70;100167.00;;;;5089048;28;20463;-83
2022/02/03 13:50:09;;;;;;;3.03;2.40;;;11.40;1.00;11.60;100151.00;;;;5070548;28;21030;-83
2022/02/03 13:52:46;;;;;;;1.73;1.13;;;11.30;1.00;11.60;100144.00;;;;5069401;28;20446;-83
2022/02/03 14:15:59;;;;;;;2.13;1.53;;;11.50;1.00;11.80;100126.00;;;;5095028;28;20538;-84
2022/02/03 14:19:01;;;;;;;3.40;1.70;;;11.50;1.00;11.80;100117.00;;;;5074596;28;20455;-83
2022/02/03 14:21:36;;;;;;;2.85;2.00;;;11.40;1.00;11.80;100129.00;;;;5083325;28;20446;-81
2022/02/03 14:27:14;;;;;;;2.37;1.73;;;11.40;1.00;11.60;100112.00;;;;5082956;28;20443;-81
2022/02/03 14:29:46;;;;;;;4.27;2.17;;;11.20;1.00;11.50;100109.00;;;;5080657;28;20464;-81
2022/02/03 14:32:18;;;;;;;4.23;2.27;;;11.10;1.00;11.40;100134.00;;;;5084514;28;20454;-81
2022/02/03 14:34:49;;;;;;;4.50;2.60;;;11.00;1.00;11.40;100108.00;;;;5090020;28;20523;-81
2022/02/03 14:37:27;;;;;;;4.07;2.30;;;11.00;1.00;11.30;100093.00;;;;5089310;28;20579;-81
2022/02/03 14:40:11;;;;;;;5.13;2.70;;;10.90;1.00;11.20;100109.00;;;;5090303;28;20474;-82
2022/02/03 14:42:43;;;;;;;3.70;2.27;;;10.80;1.00;11.20;100109.00;;;;5096204;28;20475;-82
2022/02/03 14:45:14;;;;;;;7.20;2.90;;;10.80;1.00;11.20;100143.00;;;;5095536;28;20892;-81
2022/02/03 14:47:43;;;;;;;2.90;2.03;;;10.70;1.00;11.20;100118.00;;;;5074602;28;20496;-82
2022/02/03 14:50:13;;;;;;;4.10;2.23;;;10.80;1.00;11.20;100143.00;;;;5085696;28;20470;-81
2022/02/03 14:52:56;;;;;;;7.03;2.63;;;10.90;1.00;11.20;100118.00;;;;5088012;28;20494;-81
2022/02/03 14:58:20;;;;;;;2.87;2.10;;;10.90;1.00;11.20;100116.00;;;;5084589;28;20491;-83
2022/02/03 15:00:49;;;;;;;4.13;2.57;;;10.90;1.00;11.20;100127.00;;;;5083693;28;20462;-80
2022/02/03 15:03:20;;;;;;;5.10;2.60;;;10.80;1.00;11.10;100123.00;;;;5082715;28;20484;-81
2022/02/03 15:06:11;;;;;;;3.23;2.20;;;10.70;1.00;11.10;100104.00;;;;5077967;28;20778;-81
2022/02/03 15:08:56;;;;;;;4.13;3.00;;;10.70;1.00;11.00;100101.00;;;;5079781;28;20458;-81
2022/02/03 15:11:39;;;;;;;6.20;3.60;;;10.70;1.00;11.00;100116.00;;;;5063995;28;20550;-81
2022/02/03 15:14:09;;;;;;;6.03;4.17;;;10.60;1.00;11.00;100113.00;;;;5064966;28;20526;-83
2022/02/03 15:16:38;;;;;;;6.00;4.00;;;10.50;1.00;10.90;100123.00;;;;5068958;28;20484;-81
2022/02/03 15:19:26;;;;;;;6.40;5.17;;;10.50;1.00;10.90;100123.00;;;;5080030;28;20470;-81
2022/02/03 15:21:54;;;;;;;8.83;5.70;;;10.40;1.00;10.90;100122.00;;;;5077993;28;20476;-81
2022/02/03 15:24:23;;;;;;;6.93;5.30;;;10.50;1.00;10.90;100145.00;;;;5058863;28;20473;-83
2022/02/03 15:26:52;;;;;;;10.27;6.13;;;10.50;1.00;11.00;100134.00;;;;5076700;28;20829;-82
2022/02/03 15:29:21;;;;;;;6.47;5.47;;;10.60;1.00;11.00;100123.00;;;;5065307;28;20461;-83
2022/02/03 15:31:50;;;;;;;8.17;6.83;;;10.60;1.00;10.90;100113.00;;;;5062136;28;20550;-82
2022/02/03 15:34:35;;;;;;;6.57;5.47;;;10.50;1.00;10.90;100106.00;;;;5084510;28;20480;-86
2022/02/03 15:37:10;;;;;;;9.27;6.63;;;10.60;1.00;10.90;100096.00;;;;5064836;28;20470;-82
2022/02/03 15:39:46;;;;;;;8.80;5.80;;;10.50;1.00;10.90;100100.00;;;;5084032;28;20451;-84
2022/02/03 15:42:17;;;;;;;6.87;5.70;;;10.50;1.00;10.90;100108.00;;;;5093588;28;20458;-85
2022/02/03 15:44:51;;;;;;;7.83;5.37;;;10.50;1.00;10.80;100109.00;;;;5093518;28;20454;-81
2022/02/03 15:47:27;;;;;;;5.97;5.07;;;10.40;1.00;10.80;100105.00;;;;5087974;28;20746;-83
2022/02/03 16:01:37;;;;;;;5.10;4.20;;;10.20;1.00;10.50;100085.00;;;;5061960;28;20511;-86
2022/02/03 16:04:28;;;;;;;4.53;3.47;;;10.10;1.00;10.50;100073.00;;;;5077694;28;20462;-85
2022/02/03 16:18:03;;;;;;;4.10;2.23;;;9.90;1.00;10.30;100063.00;;;;5063675;28;20581;-85
2022/02/03 16:20:36;;;;;;;2.27;2.00;;;9.80;1.00;10.30;100078.00;;;;5064102;28;20520;-86
2022/02/03 16:23:20;;;;;;;3.43;1.90;;;9.80;1.00;10.30;100081.00;;;;5056925;28;20463;-84
2022/02/03 16:51:09;;;;;;;2.97;2.30;;;9.50;1.00;10.00;100080.00;;;;5063809;28;20486;-83
2022/02/03 16:53:37;;;;;;;2.30;1.60;;;9.50;1.00;10.00;100093.00;;;;5100330;28;20437;-84
2022/02/03 16:56:08;;;;;;;2.63;1.97;;;9.50;1.00;10.00;100098.00;;;;5092904;28;20449;-84
2022/02/03 16:58:38;;;;;;;3.37;2.47;;;9.60;1.00;52.70;160982.00;;;;5113905;28;20461;-84
2022/02/03 17:01:07;;;;;;;2.40;1.90;;;9.60;1.00;10.00;100089.00;;;;5083316;28;20462;-84
2022/02/03 17:03:35;;;;;;;2.53;2.03;;;9.50;1.00;10.00;100086.00;;;;5078661;28;20455;-86
2022/02/03 17:06:06;;;;;;;2.20;1.70;;;9.50;1.00;10.00;100098.00;;;;5104380;28;20437;-84
2022/02/03 17:08:35;;;;;;;3.80;2.07;;;9.60;1.00;10.00;100086.00;;;;5079831;28;20473;-84
2022/02/03 17:11:09;;;;;;;4.70;1.80;;;9.50;1.00;10.00;100078.00;;;;5077867;28;20469;-85
2022/02/03 17:13:37;;;;;;;2.23;1.97;;;9.60;1.00;10.00;100084.00;;;;5081067;28;20524;-85
2022/02/03 17:16:07;;;;;;;4.43;2.23;;;9.60;1.00;10.10;100095.00;;;;5068182;28;20466;-83
2022/02/03 17:18:35;;;;;;;2.87;1.90;;;9.60;1.00;10.10;100088.00;;;;5071773;28;20556;-83
2022/02/03 17:21:05;;;;;;;4.13;2.40;;;9.70;1.00;10.20;100086.00;;;;5091442;28;20471;-82
2022/02/03 17:23:33;;;;;;;2.77;2.40;;;9.70;1.00;10.20;100095.00;;;;5092054;28;20964;-84
2022/02/03 17:26:09;;;;;;;2.63;2.00;;;9.90;1.00;10.30;100102.00;;;;5097338;28;20454;-83
2022/02/03 17:28:46;;;;;;;3.00;2.43;;;9.80;1.00;10.30;100104.00;;;;5063603;28;20495;-80
2022/02/03 17:31:21;;;;;;;5.10;2.17;;;9.80;1.00;10.30;100103.00;;;;5090653;28;20470;-83
2022/02/03 18:10:31;;;;;;;2.10;1.73;;;9.70;1.00;10.20;100094.00;;;;5063105;28;20478;-82
2022/02/03 18:30:17;;;;;;;3.43;2.87;;;9.60;1.00;10.00;100110.00;;;;5078815;28;20730;-81
2022/02/03 18:32:57;;;;;;;3.93;2.60;;;9.50;1.00;10.00;100094.00;;;;5093994;28;20465;-80
2022/02/03 18:52:10;;;;;;;3.90;3.40;;;9.50;1.00;10.00;100114.00;;;;5064939;28;20524;-82
2022/02/03 18:54:57;;;;;;;6.67;3.60;;;9.50;1.00;9.90;100090.00;;;;5080313;28;20457;-83
2022/02/03 18:57:36;;;;;;;3.87;3.27;;;9.50;1.00;9.90;100092.00;;;;5080860;28;20454;-81
2022/02/03 19:00:43;;;;;;;3.50;3.20;;;9.50;1.00;9.90;100086.00;;;;5086977;28;20489;-83
2022/02/03 19:09:23;;;;;;;5.33;3.73;;;9.50;1.00;9.90;100106.00;;;;5078822;28;20510;-82
2022/02/03 19:57:04;;;;;;;5.57;3.60;;;9.50;1.00;9.90;100079.00;;;;5065240;28;20863;-83